sensor_id;sensor_type;location;lat;lon;timestamp;temperature;humidity
16974;DHT22;8603;46.944;7.412;2023-02-11T00:22:18;-4.50;99.90
16974;DHT22;8603;46.944;7.412;2023-02-11T00:25:33;-4.50;99.90
16974;DHT22;8603;46.944;7.412;2023-02-11T00:28:35;-4.30;99.90
16974;DHT22;8603;46.944;7.412;2023-02-11T00:44:56;-4.40;99.90
16974;DHT22;8603;46.944;7.412;2023-02-11T00:50:57;-4.40;99.90
16974;DHT22;8603;46.944;7.412;2023-02-11T00:53:47;-4.40;99.90
16974;DHT22;8603;46.944;7.412;2023-02-11T00:56:23;-4.40;99.90
16974;DHT22;8603;46.944;7.412;2023-02-11T00:59:35;-4.30;99.90
16974;DHT22;8603;46.944;7.412;2023-02-11T01:05:24;-4.50;99.90
16974;DHT22;8603;46.944;7.412;2023-02-11T01:08:20;-4.50;99.90
16974;DHT22;8603;46.944;7.412;2023-02-11T01:11:06;-4.60;99.90
16974;DHT22;8603;46.944;7.412;2023-02-11T01:13:49;-4.60;99.90
16974;DHT22;8603;46.944;7.412;2023-02-11T01:19:11;-4.70;99.90
16974;DHT22;8603;46.944;7.412;2023-02-11T01:25:23;-4.60;99.90
16974;DHT22;8603;46.944;7.412;2023-02-11T01:27:50;-4.70;99.90
16974;DHT22;8603;46.944;7.412;2023-02-11T01:30:38;-4.70;99.90
16974;DHT22;8603;46.944;7.412;2023-02-11T01:33:10;-4.70;99.90
16974;DHT22;8603;46.944;7.412;2023-02-11T01:35:58;-4.80;99.90
16974;DHT22;8603;46.944;7.412;2023-02-11T01:38:32;-4.80;99.90
16974;DHT22;8603;46.944;7.412;2023-02-11T01:41:18;-4.90;99.90
16974;DHT22;8603;46.944;7.412;2023-02-11T01:43:48;-4.90;99.90
16974;DHT22;8603;46.944;7.412;2023-02-11T01:46:44;-4.90;99.90
16974;DHT22;8603;46.944;7.412;2023-02-11T01:49:30;-4.90;99.90
16974;DHT22;8603;46.944;7.412;2023-02-11T01:52:19;-4.70;99.90
16974;DHT22;8603;46.944;7.412;2023-02-11T01:54:56;-4.90;99.90
16974;DHT22;8603;46.944;7.412;2023-02-11T01:57:49;-4.90;99.90
16974;DHT22;8603;46.944;7.412;2023-02-11T02:00:33;-4.90;99.90
16974;DHT22;8603;46.944;7.412;2023-02-11T02:03:11;-4.90;99.90
16974;DHT22;8603;46.944;7.412;2023-02-11T02:06:51;-5.00;99.90
16974;DHT22;8603;46.944;7.412;2023-02-11T02:09:14;-5.00;99.90
16974;DHT22;8603;46.944;7.412;2023-02-11T02:11:42;-5.00;99.90
16974;DHT22;8603;46.944;7.412;2023-02-11T02:14:12;-5.00;99.90
16974;DHT22;8603;46.944;7.412;2023-02-11T02:16:40;-4.80;99.90
16974;DHT22;8603;46.944;7.412;2023-02-11T02:22:25;-5.10;99.90
16974;DHT22;8603;46.944;7.412;2023-02-11T02:28:10;-5.00;99.90
16974;DHT22;8603;46.944;7.412;2023-02-11T02:38:40;-5.00;99.90
16974;DHT22;8603;46.944;7.412;2023-02-11T02:41:12;-5.00;99.90
16974;DHT22;8603;46.944;7.412;2023-02-11T02:43:45;-5.00;99.90
16974;DHT22;8603;46.944;7.412;2023-02-11T02:46:20;-5.00;99.90
16974;DHT22;8603;46.944;7.412;2023-02-11T02:48:48;-5.00;99.90
16974;DHT22;8603;46.944;7.412;2023-02-11T02:57:27;-5.10;99.90
16974;DHT22;8603;46.944;7.412;2023-02-11T03:03:13;-5.00;99.90
16974;DHT22;8603;46.944;7.412;2023-02-11T03:08:43;-5.10;99.90
16974;DHT22;8603;46.944;7.412;2023-02-11T03:11:11;-5.10;99.90
16974;DHT22;8603;46.944;7.412;2023-02-11T03:13:43;-5.00;99.90
16974;DHT22;8603;46.944;7.412;2023-02-11T03:16:18;-5.10;99.90
16974;DHT22;8603;46.944;7.412;2023-02-11T03:18:49;-5.20;99.90
16974;DHT22;8603;46.944;7.412;2023-02-11T03:21:18;-5.20;99.90
16974;DHT22;8603;46.944;7.412;2023-02-11T03:23:56;-5.20;99.90
16974;DHT22;8603;46.944;7.412;2023-02-11T03:29:15;-5.20;99.90
16974;DHT22;8603;46.944;7.412;2023-02-11T03:32:01;-5.20;99.90
16974;DHT22;8603;46.944;7.412;2023-02-11T03:34:48;-5.20;99.90
16974;DHT22;8603;46.944;7.412;2023-02-11T03:37:32;-5.20;99.90
16974;DHT22;8603;46.944;7.412;2023-02-11T03:40:07;-5.20;99.90
16974;DHT22;8603;46.944;7.412;2023-02-11T03:42:52;-5.20;99.90
16974;DHT22;8603;46.944;7.412;2023-02-11T03:45:21;-5.10;99.90
16974;DHT22;8603;46.944;7.412;2023-02-11T03:47:52;-5.20;99.90
16974;DHT22;8603;46.944;7.412;2023-02-11T03:50:25;-5.30;99.90
16974;DHT22;8603;46.944;7.412;2023-02-11T03:52:58;-5.40;99.90
16974;DHT22;8603;46.944;7.412;2023-02-11T03:55:27;-5.40;99.90
16974;DHT22;8603;46.944;7.412;2023-02-11T03:57:56;-5.50;99.90
16974;DHT22;8603;46.944;7.412;2023-02-11T04:00:30;-5.50;99.90
16974;DHT22;8603;46.944;7.412;2023-02-11T04:02:59;-5.50;99.90
16974;DHT22;8603;46.944;7.412;2023-02-11T04:05:25;-5.40;99.90
16974;DHT22;8603;46.944;7.412;2023-02-11T04:07:51;-5.60;99.90
16974;DHT22;8603;46.944;7.412;2023-02-11T04:10:20;-5.60;99.90
16974;DHT22;8603;46.944;7.412;2023-02-11T04:12:49;-5.60;99.90
16974;DHT22;8603;46.944;7.412;2023-02-11T04:15:16;-5.50;99.90
16974;DHT22;8603;46.944;7.412;2023-02-11T04:17:44;-5.50;99.90
16974;DHT22;8603;46.944;7.412;2023-02-11T04:20:13;-5.50;99.90
16974;DHT22;8603;46.944;7.412;2023-02-11T04:22:42;-5.50;99.90
16974;DHT22;8603;46.944;7.412;2023-02-11T04:25:09;-5.50;99.90
16974;DHT22;8603;46.944;7.412;2023-02-11T04:27:36;-5.50;99.90
16974;DHT22;8603;46.944;7.412;2023-02-11T04:30:04;-5.50;99.90
16974;DHT22;8603;46.944;7.412;2023-02-11T04:32:31;-5.60;99.90
16974;DHT22;8603;46.944;7.412;2023-02-11T04:35:03;-5.60;99.90
16974;DHT22;8603;46.944;7.412;2023-02-11T04:37:33;-5.60;99.90
16974;DHT22;8603;46.944;7.412;2023-02-11T04:40:04;-5.70;99.90
16974;DHT22;8603;46.944;7.412;2023-02-11T04:42:31;-5.60;99.90
16974;DHT22;8603;46.944;7.412;2023-02-11T04:44:58;-5.60;99.90
16974;DHT22;8603;46.944;7.412;2023-02-11T04:47:27;-5.60;99.90
16974;DHT22;8603;46.944;7.412;2023-02-11T04:49:55;-5.60;99.90
16974;DHT22;8603;46.944;7.412;2023-02-11T04:52:22;-5.60;99.90
16974;DHT22;8603;46.944;7.412;2023-02-11T04:54:53;-5.60;99.90
16974;DHT22;8603;46.944;7.412;2023-02-11T04:57:19;-5.60;99.90
16974;DHT22;8603;46.944;7.412;2023-02-11T04:59:48;-5.60;99.90
16974;DHT22;8603;46.944;7.412;2023-02-11T05:02:15;-5.60;99.90
16974;DHT22;8603;46.944;7.412;2023-02-11T05:04:41;-5.70;99.90
16974;DHT22;8603;46.944;7.412;2023-02-11T05:07:08;-5.60;99.90
16974;DHT22;8603;46.944;7.412;2023-02-11T05:09:35;-5.60;99.90
16974;DHT22;8603;46.944;7.412;2023-02-11T05:12:01;-5.60;99.90
16974;DHT22;8603;46.944;7.412;2023-02-11T05:14:34;-5.60;99.90
16974;DHT22;8603;46.944;7.412;2023-02-11T05:17:00;-5.40;99.90
16974;DHT22;8603;46.944;7.412;2023-02-11T05:19:26;-5.60;99.90
16974;DHT22;8603;46.944;7.412;2023-02-11T05:21:55;-5.60;99.90
16974;DHT22;8603;46.944;7.412;2023-02-11T05:24:22;-5.60;99.90
16974;DHT22;8603;46.944;7.412;2023-02-11T05:26:49;-5.60;99.90
16974;DHT22;8603;46.944;7.412;2023-02-11T05:29:15;-5.70;99.90
16974;DHT22;8603;46.944;7.412;2023-02-11T05:31:41;-5.70;99.90
16974;DHT22;8603;46.944;7.412;2023-02-11T05:34:07;-5.60;99.90
16974;DHT22;8603;46.944;7.412;2023-02-11T05:36:34;-5.80;99.90
16974;DHT22;8603;46.944;7.412;2023-02-11T05:39:01;-5.70;99.90
16974;DHT22;8603;46.944;7.412;2023-02-11T05:41:27;-5.70;99.90
16974;DHT22;8603;46.944;7.412;2023-02-11T05:43:54;-5.70;99.90
16974;DHT22;8603;46.944;7.412;2023-02-11T05:46:20;-5.70;99.90
16974;DHT22;8603;46.944;7.412;2023-02-11T05:48:47;-5.60;99.90
16974;DHT22;8603;46.944;7.412;2023-02-11T05:51:13;-5.70;99.90
16974;DHT22;8603;46.944;7.412;2023-02-11T05:53:40;-5.70;99.90
16974;DHT22;8603;46.944;7.412;2023-02-11T05:56:06;-5.70;99.90
16974;DHT22;8603;46.944;7.412;2023-02-11T05:58:32;-5.70;99.90
16974;DHT22;8603;46.944;7.412;2023-02-11T06:01:10;-5.70;99.90
16974;DHT22;8603;46.944;7.412;2023-02-11T06:06:31;-5.60;99.90
16974;DHT22;8603;46.944;7.412;2023-02-11T06:12:02;-5.60;99.90
16974;DHT22;8603;46.944;7.412;2023-02-11T06:14:32;-5.70;99.90
16974;DHT22;8603;46.944;7.412;2023-02-11T06:16:58;-5.70;99.90
16974;DHT22;8603;46.944;7.412;2023-02-11T06:19:28;-5.70;99.90
16974;DHT22;8603;46.944;7.412;2023-02-11T06:21:57;-5.70;99.90
16974;DHT22;8603;46.944;7.412;2023-02-11T06:24:23;-5.60;99.90
16974;DHT22;8603;46.944;7.412;2023-02-11T06:27:14;-5.70;99.90
16974;DHT22;8603;46.944;7.412;2023-02-11T06:30:11;-5.80;99.90
16974;DHT22;8603;46.944;7.412;2023-02-11T06:32:46;-5.50;99.90
16974;DHT22;8603;46.944;7.412;2023-02-11T06:35:13;-5.70;99.90
16974;DHT22;8603;46.944;7.412;2023-02-11T06:37:40;-5.60;99.90
16974;DHT22;8603;46.944;7.412;2023-02-11T06:40:19;-5.60;99.90
16974;DHT22;8603;46.944;7.412;2023-02-11T06:42:47;-5.60;99.90
16974;DHT22;8603;46.944;7.412;2023-02-11T06:45:13;-5.60;99.90
16974;DHT22;8603;46.944;7.412;2023-02-11T06:47:40;-5.60;99.90
16974;DHT22;8603;46.944;7.412;2023-02-11T06:50:09;-5.50;99.90
16974;DHT22;8603;46.944;7.412;2023-02-11T06:52:38;-5.50;99.90
16974;DHT22;8603;46.944;7.412;2023-02-11T06:55:04;-5.50;99.90
16974;DHT22;8603;46.944;7.412;2023-02-11T06:57:30;-5.50;99.90
16974;DHT22;8603;46.944;7.412;2023-02-11T06:59:59;-5.40;99.90
16974;DHT22;8603;46.944;7.412;2023-02-11T07:02:25;-5.30;99.90
16974;DHT22;8603;46.944;7.412;2023-02-11T07:04:51;-5.00;99.90
16974;DHT22;8603;46.944;7.412;2023-02-11T07:07:22;-4.80;99.90
16974;DHT22;8603;46.944;7.412;2023-02-11T07:09:49;-4.50;99.90
16974;DHT22;8603;46.944;7.412;2023-02-11T07:12:30;-4.30;99.90
16974;DHT22;8603;46.944;7.412;2023-02-11T07:14:56;-3.80;99.90
16974;DHT22;8603;46.944;7.412;2023-02-11T07:17:22;-3.40;99.90
16974;DHT22;8603;46.944;7.412;2023-02-11T07:19:48;-3.30;99.90
16974;DHT22;8603;46.944;7.412;2023-02-11T07:22:14;-3.20;99.90
16974;DHT22;8603;46.944;7.412;2023-02-11T07:24:40;-3.00;99.90
16974;DHT22;8603;46.944;7.412;2023-02-11T07:27:05;-2.60;99.90
16974;DHT22;8603;46.944;7.412;2023-02-11T07:29:31;-2.10;99.90
16974;DHT22;8603;46.944;7.412;2023-02-11T07:31:57;-1.80;99.90
16974;DHT22;8603;46.944;7.412;2023-02-11T07:34:23;-1.60;99.90
16974;DHT22;8603;46.944;7.412;2023-02-11T07:36:49;-1.60;99.90
16974;DHT22;8603;46.944;7.412;2023-02-11T07:39:16;-1.70;99.90
16974;DHT22;8603;46.944;7.412;2023-02-11T07:41:41;-1.40;99.90
16974;DHT22;8603;46.944;7.412;2023-02-11T07:44:09;-0.70;99.90
16974;DHT22;8603;46.944;7.412;2023-02-11T07:46:35;-0.10;99.90
16974;DHT22;8603;46.944;7.412;2023-02-11T07:49:00;0.70;99.90
16974;DHT22;8603;46.944;7.412;2023-02-11T07:51:28;1.90;99.90
16974;DHT22;8603;46.944;7.412;2023-02-11T07:53:56;3.00;99.90
16974;DHT22;8603;46.944;7.412;2023-02-11T07:56:22;4.30;99.90
16974;DHT22;8603;46.944;7.412;2023-02-11T07:58:48;5.30;99.90
16974;DHT22;8603;46.944;7.412;2023-02-11T08:01:20;6.10;99.90
16974;DHT22;8603;46.944;7.412;2023-02-11T08:03:51;7.10;99.90
16974;DHT22;8603;46.944;7.412;2023-02-11T08:06:18;8.10;99.90
16974;DHT22;8603;46.944;7.412;2023-02-11T08:08:45;8.70;99.90
16974;DHT22;8603;46.944;7.412;2023-02-11T08:11:23;8.30;99.90
16974;DHT22;8603;46.944;7.412;2023-02-11T08:13:49;8.10;99.90
16974;DHT22;8603;46.944;7.412;2023-02-11T08:16:34;8.70;99.90
16974;DHT22;8603;46.944;7.412;2023-02-11T08:19:03;9.90;99.90
16974;DHT22;8603;46.944;7.412;2023-02-11T08:21:29;10.90;99.90
16974;DHT22;8603;46.944;7.412;2023-02-11T08:23:55;11.60;99.90
16974;DHT22;8603;46.944;7.412;2023-02-11T08:26:23;12.10;99.90
16974;DHT22;8603;46.944;7.412;2023-02-11T08:28:51;12.90;99.90
16974;DHT22;8603;46.944;7.412;2023-02-11T08:31:22;13.80;99.60
16974;DHT22;8603;46.944;7.412;2023-02-11T08:33:48;14.70;97.20
16974;DHT22;8603;46.944;7.412;2023-02-11T08:36:17;15.40;92.90
16974;DHT22;8603;46.944;7.412;2023-02-11T08:38:43;14.90;91.60
16974;DHT22;8603;46.944;7.412;2023-02-11T08:41:10;15.50;92.40
16974;DHT22;8603;46.944;7.412;2023-02-11T08:43:38;16.20;90.70
16974;DHT22;8603;46.944;7.412;2023-02-11T08:46:06;16.90;90.30
16974;DHT22;8603;46.944;7.412;2023-02-11T08:48:33;17.50;89.00
16974;DHT22;8603;46.944;7.412;2023-02-11T08:50:59;18.10;85.30
16974;DHT22;8603;46.944;7.412;2023-02-11T08:53:25;18.30;82.10
16974;DHT22;8603;46.944;7.412;2023-02-11T08:55:53;18.50;80.80
16974;DHT22;8603;46.944;7.412;2023-02-11T08:58:20;18.40;78.50
16974;DHT22;8603;46.944;7.412;2023-02-11T09:00:50;18.30;76.30
16974;DHT22;8603;46.944;7.412;2023-02-11T09:03:17;18.70;76.00
16974;DHT22;8603;46.944;7.412;2023-02-11T09:05:45;19.10;74.80
16974;DHT22;8603;46.944;7.412;2023-02-11T09:08:14;19.50;72.40
16974;DHT22;8603;46.944;7.412;2023-02-11T09:10:40;19.60;72.40
16974;DHT22;8603;46.944;7.412;2023-02-11T09:13:06;19.60;70.80
16974;DHT22;8603;46.944;7.412;2023-02-11T09:15:32;19.50;70.50
16974;DHT22;8603;46.944;7.412;2023-02-11T09:17:58;19.00;70.50
16974;DHT22;8603;46.944;7.412;2023-02-11T09:20:24;18.60;71.70
16974;DHT22;8603;46.944;7.412;2023-02-11T09:22:52;18.30;72.70
16974;DHT22;8603;46.944;7.412;2023-02-11T09:25:18;17.70;71.90
16974;DHT22;8603;46.944;7.412;2023-02-11T09:27:44;16.70;70.90
16974;DHT22;8603;46.944;7.412;2023-02-11T09:30:10;15.00;73.10
16974;DHT22;8603;46.944;7.412;2023-02-11T09:32:36;13.20;76.00
16974;DHT22;8603;46.944;7.412;2023-02-11T09:35:02;11.50;78.00
16974;DHT22;8603;46.944;7.412;2023-02-11T09:37:28;9.90;81.60
16974;DHT22;8603;46.944;7.412;2023-02-11T09:39:53;8.50;84.40
16974;DHT22;8603;46.944;7.412;2023-02-11T09:42:47;7.50;87.20
16974;DHT22;8603;46.944;7.412;2023-02-11T09:45:20;6.60;90.30
16974;DHT22;8603;46.944;7.412;2023-02-11T09:48:01;6.00;92.80
16974;DHT22;8603;46.944;7.412;2023-02-11T09:55:44;4.90;96.00
16974;DHT22;8603;46.944;7.412;2023-02-11T09:58:15;4.70;97.10
16974;DHT22;8603;46.944;7.412;2023-02-11T10:00:47;4.60;97.60
16974;DHT22;8603;46.944;7.412;2023-02-11T10:03:31;4.40;99.00
16974;DHT22;8603;46.944;7.412;2023-02-11T10:22:44;3.70;99.90
16974;DHT22;8603;46.944;7.412;2023-02-11T10:25:24;3.80;99.90
16974;DHT22;8603;46.944;7.412;2023-02-11T10:27:52;3.90;99.90
16974;DHT22;8603;46.944;7.412;2023-02-11T10:30:29;3.80;99.90
16974;DHT22;8603;46.944;7.412;2023-02-11T10:33:03;3.90;99.90
16974;DHT22;8603;46.944;7.412;2023-02-11T10:35:31;3.90;99.90
16974;DHT22;8603;46.944;7.412;2023-02-11T10:37:58;3.90;99.90
16974;DHT22;8603;46.944;7.412;2023-02-11T10:40:27;4.00;99.90
16974;DHT22;8603;46.944;7.412;2023-02-11T10:42:56;4.00;99.90
16974;DHT22;8603;46.944;7.412;2023-02-11T10:45:29;4.00;99.90
16974;DHT22;8603;46.944;7.412;2023-02-11T10:47:56;4.10;99.90
16974;DHT22;8603;46.944;7.412;2023-02-11T10:50:29;4.30;99.90
16974;DHT22;8603;46.944;7.412;2023-02-11T10:53:15;4.20;99.90
16974;DHT22;8603;46.944;7.412;2023-02-11T10:55:53;4.30;99.90
16974;DHT22;8603;46.944;7.412;2023-02-11T11:00:52;4.40;99.90
16974;DHT22;8603;46.944;7.412;2023-02-11T11:03:23;4.50;99.90
16974;DHT22;8603;46.944;7.412;2023-02-11T11:05:59;4.60;99.90
16974;DHT22;8603;46.944;7.412;2023-02-11T11:11:22;4.60;99.90
16974;DHT22;8603;46.944;7.412;2023-02-11T11:14:22;4.70;99.90
16974;DHT22;8603;46.944;7.412;2023-02-11T11:17:38;4.80;99.90
16974;DHT22;8603;46.944;7.412;2023-02-11T12:25:28;6.20;99.90
16974;DHT22;8603;46.944;7.412;2023-02-11T12:37:16;6.50;99.90
16974;DHT22;8603;46.944;7.412;2023-02-11T12:40:00;6.50;99.90
16974;DHT22;8603;46.944;7.412;2023-02-11T13:00:14;6.90;99.90
16974;DHT22;8603;46.944;7.412;2023-02-11T13:02:47;7.00;99.90
16974;DHT22;8603;46.944;7.412;2023-02-11T13:05:26;7.00;99.90
16974;DHT22;8603;46.944;7.412;2023-02-11T13:07:57;7.10;99.90
16974;DHT22;8603;46.944;7.412;2023-02-11T13:10:39;7.20;99.90
16974;DHT22;8603;46.944;7.412;2023-02-11T13:13:30;7.20;99.90
16974;DHT22;8603;46.944;7.412;2023-02-11T13:16:06;7.20;99.80
16974;DHT22;8603;46.944;7.412;2023-02-11T13:18:44;7.30;99.60
16974;DHT22;8603;46.944;7.412;2023-02-11T13:21:47;7.40;99.60
16974;DHT22;8603;46.944;7.412;2023-02-11T13:27:12;7.50;98.60
16974;DHT22;8603;46.944;7.412;2023-02-11T13:35:37;7.50;98.40
16974;DHT22;8603;46.944;7.412;2023-02-11T13:38:29;7.60;98.40
16974;DHT22;8603;46.944;7.412;2023-02-11T13:43:59;7.60;97.10
16974;DHT22;8603;46.944;7.412;2023-02-11T13:46:28;7.60;97.50
16974;DHT22;8603;46.944;7.412;2023-02-11T13:48:54;7.70;97.60
16974;DHT22;8603;46.944;7.412;2023-02-11T13:51:38;7.70;97.90
16974;DHT22;8603;46.944;7.412;2023-02-11T13:54:07;7.80;97.20
16974;DHT22;8603;46.944;7.412;2023-02-11T14:03:21;7.80;96.50
16974;DHT22;8603;46.944;7.412;2023-02-11T14:06:33;7.80;95.70
16974;DHT22;8603;46.944;7.412;2023-02-11T14:09:46;7.90;96.30
16974;DHT22;8603;46.944;7.412;2023-02-11T14:16:27;7.90;97.10
16974;DHT22;8603;46.944;7.412;2023-02-11T14:19:07;7.90;97.10
16974;DHT22;8603;46.944;7.412;2023-02-11T22:34:11;-2.00;99.90
16974;DHT22;8603;46.944;7.412;2023-02-11T22:36:40;-2.00;99.90
16974;DHT22;8603;46.944;7.412;2023-02-11T22:39:09;-2.10;99.90
16974;DHT22;8603;46.944;7.412;2023-02-11T22:41:38;-2.10;99.90
16974;DHT22;8603;46.944;7.412;2023-02-11T22:44:12;-2.10;99.90
16974;DHT22;8603;46.944;7.412;2023-02-11T23:28:07;-2.50;99.90
16974;DHT22;8603;46.944;7.412;2023-02-11T23:30:33;-2.50;99.90
16974;DHT22;8603;46.944;7.412;2023-02-11T23:33:05;-2.50;99.90
16974;DHT22;8603;46.944;7.412;2023-02-11T23:35:34;-2.50;99.90
16974;DHT22;8603;46.944;7.412;2023-02-11T23:38:00;-2.50;99.90
